sensor_id;sensor_type;location;lat;lon;timestamp;pressure;altitude;pressure_sealevel;temperature;humidity
38880;BME280;25887;30.194;-97.880;2023-01-30T00:00:16;98647.59;;;17.47;50.81
38880;BME280;25887;30.194;-97.880;2023-01-30T00:02:42;98644.44;;;17.33;50.95
38880;BME280;25887;30.194;-97.880;2023-01-30T00:05:09;98653.41;;;17.19;50.64
38880;BME280;25887;30.194;-97.880;2023-01-30T00:07:35;98681.34;;;17.08;50.66
38880;BME280;25887;30.194;-97.880;2023-01-30T00:10:21;98690.38;;;16.90;50.89
38880;BME280;25887;30.194;-97.880;2023-01-30T00:12:46;98690.59;;;16.80;50.95
38880;BME280;25887;30.194;-97.880;2023-01-30T00:15:12;98692.56;;;16.67;50.99
38880;BME280;25887;30.194;-97.880;2023-01-30T00:17:38;98689.38;;;16.53;50.76
38880;BME280;25887;30.194;-97.880;2023-01-30T00:20:04;98704.28;;;16.40;50.98
38880;BME280;25887;30.194;-97.880;2023-01-30T00:22:51;98707.16;;;16.25;50.69
38880;BME280;25887;30.194;-97.880;2023-01-30T00:25:20;98720.47;;;16.05;50.95
38880;BME280;25887;30.194;-97.880;2023-01-30T00:27:46;98713.75;;;15.92;50.99
38880;BME280;25887;30.194;-97.880;2023-01-30T00:30:12;98720.84;;;15.82;51.03
38880;BME280;25887;30.194;-97.880;2023-01-30T00:32:37;98729.59;;;15.73;51.01
38880;BME280;25887;30.194;-97.880;2023-01-30T00:35:03;98730.66;;;15.58;50.90
38880;BME280;25887;30.194;-97.880;2023-01-30T00:37:31;98735.19;;;15.43;50.77
38880;BME280;25887;30.194;-97.880;2023-01-30T00:39:56;98730.25;;;15.26;50.78
38880;BME280;25887;30.194;-97.880;2023-01-30T00:42:22;98743.34;;;15.14;51.03
38880;BME280;25887;30.194;-97.880;2023-01-30T00:45:08;98742.63;;;15.01;51.15
38880;BME280;25887;30.194;-97.880;2023-01-30T00:47:53;98747.09;;;14.88;51.57
38880;BME280;25887;30.194;-97.880;2023-01-30T00:50:19;98756.69;;;14.80;51.40
38880;BME280;25887;30.194;-97.880;2023-01-30T00:52:45;98761.06;;;14.72;51.46
38880;BME280;25887;30.194;-97.880;2023-01-30T00:55:11;98762.91;;;14.61;51.39
38880;BME280;25887;30.194;-97.880;2023-01-30T00:57:37;98766.47;;;14.49;51.43
38880;BME280;25887;30.194;-97.880;2023-01-30T01:00:03;98777.75;;;14.36;51.42
38880;BME280;25887;30.194;-97.880;2023-01-30T01:02:30;98786.50;;;14.24;51.09
38880;BME280;25887;30.194;-97.880;2023-01-30T01:05:10;98792.63;;;14.11;51.48
38880;BME280;25887;30.194;-97.880;2023-01-30T01:11:18;98805.72;;;13.80;51.33
38880;BME280;25887;30.194;-97.880;2023-01-30T01:17:44;98817.97;;;13.48;51.46
38880;BME280;25887;30.194;-97.880;2023-01-30T01:27:12;98824.94;;;13.15;51.74
38880;BME280;25887;30.194;-97.880;2023-01-30T01:42:08;98847.38;;;12.70;51.92
38880;BME280;25887;30.194;-97.880;2023-01-30T01:44:59;98846.53;;;12.64;52.35
38880;BME280;25887;30.194;-97.880;2023-01-30T01:51:25;98858.56;;;12.48;51.98
38880;BME280;25887;30.194;-97.880;2023-01-30T01:54:34;98870.59;;;12.40;52.36
38880;BME280;25887;30.194;-97.880;2023-01-30T02:12:52;98879.94;;;11.98;52.52
38880;BME280;25887;30.194;-97.880;2023-01-30T02:15:56;98880.81;;;11.97;52.39
38880;BME280;25887;30.194;-97.880;2023-01-30T02:27:53;98916.78;;;11.76;52.42
38880;BME280;25887;30.194;-97.880;2023-01-30T02:38:29;98942.38;;;11.48;52.26
38880;BME280;25887;30.194;-97.880;2023-01-30T02:41:22;98940.66;;;11.44;52.45
38880;BME280;25887;30.194;-97.880;2023-01-30T02:49:21;98950.06;;;11.42;52.49
38880;BME280;25887;30.194;-97.880;2023-01-30T02:51:48;98951.75;;;11.43;52.30
38880;BME280;25887;30.194;-97.880;2023-01-30T02:54:28;98944.91;;;11.43;52.46
38880;BME280;25887;30.194;-97.880;2023-01-30T02:56:56;98941.47;;;11.38;52.40
38880;BME280;25887;30.194;-97.880;2023-01-30T02:59:33;98944.00;;;11.34;52.46
38880;BME280;25887;30.194;-97.880;2023-01-30T03:07:42;98956.75;;;11.19;52.38
38880;BME280;25887;30.194;-97.880;2023-01-30T03:10:18;98959.31;;;11.15;52.59
38880;BME280;25887;30.194;-97.880;2023-01-30T03:13:04;98952.44;;;11.11;52.59
38880;BME280;25887;30.194;-97.880;2023-01-30T03:15:37;98954.13;;;11.06;52.73
38880;BME280;25887;30.194;-97.880;2023-01-30T03:18:12;98949.78;;;11.02;52.28
38880;BME280;25887;30.194;-97.880;2023-01-30T03:20:39;98957.50;;;10.98;52.46
38880;BME280;25887;30.194;-97.880;2023-01-30T03:23:06;98959.16;;;10.93;52.36
38880;BME280;25887;30.194;-97.880;2023-01-30T03:25:32;98946.25;;;10.88;52.43
38880;BME280;25887;30.194;-97.880;2023-01-30T03:28:08;98951.34;;;10.80;52.52
38880;BME280;25887;30.194;-97.880;2023-01-30T03:30:35;98952.19;;;10.78;52.51
38880;BME280;25887;30.194;-97.880;2023-01-30T03:33:01;98959.88;;;10.75;52.73
38880;BME280;25887;30.194;-97.880;2023-01-30T03:35:27;98973.53;;;10.71;52.46
38880;BME280;25887;30.194;-97.880;2023-01-30T03:37:54;98971.78;;;10.67;52.89
38880;BME280;25887;30.194;-97.880;2023-01-30T03:40:19;98973.47;;;10.65;52.67
38880;BME280;25887;30.194;-97.880;2023-01-30T03:42:45;98976.88;;;10.60;52.53
38880;BME280;25887;30.194;-97.880;2023-01-30T03:45:31;98986.22;;;10.55;52.49
38880;BME280;25887;30.194;-97.880;2023-01-30T03:47:57;98988.78;;;10.52;52.51
38880;BME280;25887;30.194;-97.880;2023-01-30T03:50:23;98986.22;;;10.51;52.86
38880;BME280;25887;30.194;-97.880;2023-01-30T03:52:48;98993.03;;;10.50;52.67
38880;BME280;25887;30.194;-97.880;2023-01-30T03:55:14;98983.59;;;10.49;52.42
38880;BME280;25887;30.194;-97.880;2023-01-30T03:57:40;98995.56;;;10.47;52.52
38880;BME280;25887;30.194;-97.880;2023-01-30T04:00:06;98988.72;;;10.45;52.72
38880;BME280;25887;30.194;-97.880;2023-01-30T04:02:32;98989.56;;;10.44;52.59
38880;BME280;25887;30.194;-97.880;2023-01-30T04:05:03;98992.13;;;10.44;52.68
38880;BME280;25887;30.194;-97.880;2023-01-30T04:07:29;98984.38;;;10.41;52.62
38880;BME280;25887;30.194;-97.880;2023-01-30T04:09:55;98984.34;;;10.36;52.55
38880;BME280;25887;30.194;-97.880;2023-01-30T04:12:21;98983.44;;;10.34;52.34
38880;BME280;25887;30.194;-97.880;2023-01-30T04:14:47;98978.28;;;10.31;52.42
38880;BME280;25887;30.194;-97.880;2023-01-30T04:17:13;98986.84;;;10.30;52.39
38880;BME280;25887;30.194;-97.880;2023-01-30T04:19:39;98981.69;;;10.30;52.79
38880;BME280;25887;30.194;-97.880;2023-01-30T04:22:21;98990.25;;;10.29;52.47
38880;BME280;25887;30.194;-97.880;2023-01-30T04:24:46;98991.09;;;10.28;52.84
38880;BME280;25887;30.194;-97.880;2023-01-30T04:27:12;98979.06;;;10.27;52.73
38880;BME280;25887;30.194;-97.880;2023-01-30T04:29:38;98982.50;;;10.26;52.81
38880;BME280;25887;30.194;-97.880;2023-01-30T04:32:15;98973.94;;;10.24;52.58
38880;BME280;25887;30.194;-97.880;2023-01-30T04:35:20;98971.31;;;10.21;52.53
38880;BME280;25887;30.194;-97.880;2023-01-30T04:37:45;98971.25;;;10.18;52.78
38880;BME280;25887;30.194;-97.880;2023-01-30T04:40:11;98978.94;;;10.15;52.75
38880;BME280;25887;30.194;-97.880;2023-01-30T04:42:37;98976.34;;;10.13;52.53
38880;BME280;25887;30.194;-97.880;2023-01-30T04:45:03;98984.84;;;10.11;52.57
38880;BME280;25887;30.194;-97.880;2023-01-30T04:47:29;98990.00;;;10.11;52.69
38880;BME280;25887;30.194;-97.880;2023-01-30T04:49:55;98980.56;;;10.10;52.82
38880;BME280;25887;30.194;-97.880;2023-01-30T04:52:20;98978.00;;;10.08;52.86
38880;BME280;25887;30.194;-97.880;2023-01-30T04:54:46;98981.41;;;10.07;52.68
38880;BME280;25887;30.194;-97.880;2023-01-30T04:57:28;98980.53;;;10.07;52.51
38880;BME280;25887;30.194;-97.880;2023-01-30T04:59:53;98975.41;;;10.07;52.81
38880;BME280;25887;30.194;-97.880;2023-01-30T05:02:19;98983.97;;;10.05;52.82
38880;BME280;25887;30.194;-97.880;2023-01-30T05:04:47;98985.63;;;10.02;52.30
38880;BME280;25887;30.194;-97.880;2023-01-30T05:07:26;98977.88;;;9.97;52.25
38880;BME280;25887;30.194;-97.880;2023-01-30T05:09:51;98981.25;;;9.95;52.35
38880;BME280;25887;30.194;-97.880;2023-01-30T05:12:17;98968.41;;;9.93;52.80
38880;BME280;25887;30.194;-97.880;2023-01-30T05:14:47;98971.78;;;9.89;52.30
38880;BME280;25887;30.194;-97.880;2023-01-30T05:17:13;98970.84;;;9.83;52.43
38880;BME280;25887;30.194;-97.880;2023-01-30T05:19:41;98970.78;;;9.78;52.09
38880;BME280;25887;30.194;-97.880;2023-01-30T05:22:26;98970.78;;;9.76;52.47
38880;BME280;25887;30.194;-97.880;2023-01-30T05:24:52;98966.47;;;9.74;52.39
38880;BME280;25887;30.194;-97.880;2023-01-30T05:27:18;98960.47;;;9.73;52.34
38880;BME280;25887;30.194;-97.880;2023-01-30T05:29:44;98949.34;;;9.73;52.24
38880;BME280;25887;30.194;-97.880;2023-01-30T05:32:13;98941.66;;;9.73;52.91
38880;BME280;25887;30.194;-97.880;2023-01-30T05:35:11;98949.34;;;9.73;52.26
38880;BME280;25887;30.194;-97.880;2023-01-30T05:37:52;98957.06;;;9.73;52.74
38880;BME280;25887;30.194;-97.880;2023-01-30T05:40:18;98946.75;;;9.71;52.33
38880;BME280;25887;30.194;-97.880;2023-01-30T05:42:44;98940.75;;;9.71;52.49
38880;BME280;25887;30.194;-97.880;2023-01-30T05:45:09;98945.88;;;9.68;52.67
38880;BME280;25887;30.194;-97.880;2023-01-30T05:50:38;98945.00;;;9.67;52.32
38880;BME280;25887;30.194;-97.880;2023-01-30T05:53:04;98953.50;;;9.65;52.24
38880;BME280;25887;30.194;-97.880;2023-01-30T05:55:30;98946.63;;;9.62;52.17
38880;BME280;25887;30.194;-97.880;2023-01-30T05:57:56;98951.75;;;9.62;52.26
38880;BME280;25887;30.194;-97.880;2023-01-30T06:00:22;98944.06;;;9.61;52.27
38880;BME280;25887;30.194;-97.880;2023-01-30T06:02:47;98938.06;;;9.59;52.29
38880;BME280;25887;30.194;-97.880;2023-01-30T06:05:13;98938.84;;;9.55;52.22
38880;BME280;25887;30.194;-97.880;2023-01-30T06:07:39;98929.44;;;9.55;52.41
38880;BME280;25887;30.194;-97.880;2023-01-30T06:10:07;98932.84;;;9.53;52.88
38880;BME280;25887;30.194;-97.880;2023-01-30T06:12:33;98937.94;;;9.51;52.54
38880;BME280;25887;30.194;-97.880;2023-01-30T06:15:07;98936.19;;;9.47;52.55
38880;BME280;25887;30.194;-97.880;2023-01-30T06:17:33;98940.44;;;9.45;52.19
38880;BME280;25887;30.194;-97.880;2023-01-30T06:19:59;98940.44;;;9.46;52.67
38880;BME280;25887;30.194;-97.880;2023-01-30T06:22:25;98944.72;;;9.47;52.96
38880;BME280;25887;30.194;-97.880;2023-01-30T06:24:51;98934.47;;;9.49;52.46
38880;BME280;25887;30.194;-97.880;2023-01-30T06:27:35;98920.81;;;9.48;52.56
38880;BME280;25887;30.194;-97.880;2023-01-30T06:30:09;98934.53;;;9.51;52.32
38880;BME280;25887;30.194;-97.880;2023-01-30T06:32:49;98931.97;;;9.51;52.79
38880;BME280;25887;30.194;-97.880;2023-01-30T06:35:15;98926.78;;;9.49;52.20
38880;BME280;25887;30.194;-97.880;2023-01-30T06:37:42;98926.78;;;9.47;52.56
38880;BME280;25887;30.194;-97.880;2023-01-30T06:40:10;98917.34;;;9.43;52.77
38880;BME280;25887;30.194;-97.880;2023-01-30T06:42:36;98914.78;;;9.43;52.76
38880;BME280;25887;30.194;-97.880;2023-01-30T06:45:05;98912.22;;;9.45;52.85
38880;BME280;25887;30.194;-97.880;2023-01-30T06:47:31;98926.75;;;9.46;52.89
38880;BME280;25887;30.194;-97.880;2023-01-30T06:49:57;98921.66;;;9.47;52.16
38880;BME280;25887;30.194;-97.880;2023-01-30T06:52:23;98912.22;;;9.46;52.40
38880;BME280;25887;30.194;-97.880;2023-01-30T06:54:48;98919.09;;;9.47;52.54
38880;BME280;25887;30.194;-97.880;2023-01-30T06:57:14;98925.94;;;9.48;52.09
38880;BME280;25887;30.194;-97.880;2023-01-30T06:59:40;98923.34;;;9.45;52.74
38880;BME280;25887;30.194;-97.880;2023-01-30T07:02:06;98924.19;;;9.46;52.58
38880;BME280;25887;30.194;-97.880;2023-01-30T07:04:32;98922.47;;;9.45;52.79
38880;BME280;25887;30.194;-97.880;2023-01-30T07:06:57;98921.56;;;9.41;52.96
38880;BME280;25887;30.194;-97.880;2023-01-30T07:09:43;98913.84;;;9.40;52.29
38880;BME280;25887;30.194;-97.880;2023-01-30T07:12:09;98911.28;;;9.38;52.61
38880;BME280;25887;30.194;-97.880;2023-01-30T07:14:35;98904.41;;;9.34;52.04
38880;BME280;25887;30.194;-97.880;2023-01-30T07:17:00;98907.75;;;9.32;51.74
38880;BME280;25887;30.194;-97.880;2023-01-30T07:19:46;98907.72;;;9.27;52.56
38880;BME280;25887;30.194;-97.880;2023-01-30T07:22:12;98911.06;;;9.21;52.66
38880;BME280;25887;30.194;-97.880;2023-01-30T07:24:38;98914.47;;;9.20;52.41
38880;BME280;25887;30.194;-97.880;2023-01-30T07:27:10;98912.66;;;9.13;52.61
38880;BME280;25887;30.194;-97.880;2023-01-30T07:29:37;98913.50;;;9.14;52.38
38880;BME280;25887;30.194;-97.880;2023-01-30T07:32:03;98910.03;;;9.10;52.48
38880;BME280;25887;30.194;-97.880;2023-01-30T07:34:29;98909.97;;;9.06;52.04
38880;BME280;25887;30.194;-97.880;2023-01-30T07:36:55;98914.25;;;9.05;53.02
38880;BME280;25887;30.194;-97.880;2023-01-30T07:39:21;98909.09;;;9.04;52.63
38880;BME280;25887;30.194;-97.880;2023-01-30T07:41:47;98932.91;;;8.97;52.56
38880;BME280;25887;30.194;-97.880;2023-01-30T07:44:12;98932.00;;;8.94;52.36
38880;BME280;25887;30.194;-97.880;2023-01-30T07:46:38;98930.28;;;8.93;52.20
38880;BME280;25887;30.194;-97.880;2023-01-30T07:49:04;98924.28;;;8.91;52.88
38880;BME280;25887;30.194;-97.880;2023-01-30T07:51:31;98927.69;;;8.90;52.66
38880;BME280;25887;30.194;-97.880;2023-01-30T07:53:57;98932.81;;;8.90;52.91
38880;BME280;25887;30.194;-97.880;2023-01-30T07:56:23;98939.66;;;8.91;52.08
38880;BME280;25887;30.194;-97.880;2023-01-30T07:58:49;98939.66;;;8.93;52.88
38880;BME280;25887;30.194;-97.880;2023-01-30T08:01:16;98937.97;;;8.93;52.48
38880;BME280;25887;30.194;-97.880;2023-01-30T08:03:42;98949.13;;;8.96;52.71
38880;BME280;25887;30.194;-97.880;2023-01-30T08:06:10;98954.19;;;8.94;52.11
38880;BME280;25887;30.194;-97.880;2023-01-30T08:09:04;98944.78;;;8.91;52.11
38880;BME280;25887;30.194;-97.880;2023-01-30T08:11:30;98943.06;;;8.90;52.18
38880;BME280;25887;30.194;-97.880;2023-01-30T08:13:56;98937.06;;;8.90;52.11
38880;BME280;25887;30.194;-97.880;2023-01-30T08:16:22;98936.22;;;8.89;52.27
38880;BME280;25887;30.194;-97.880;2023-01-30T08:18:48;98936.16;;;8.86;52.03
38880;BME280;25887;30.194;-97.880;2023-01-30T08:21:34;98930.13;;;8.83;52.69
38880;BME280;25887;30.194;-97.880;2023-01-30T08:23:59;98931.81;;;8.82;52.57
38880;BME280;25887;30.194;-97.880;2023-01-30T08:26:25;98940.34;;;8.81;52.25
38880;BME280;25887;30.194;-97.880;2023-01-30T08:28:51;98936.00;;;8.77;52.47
38880;BME280;25887;30.194;-97.880;2023-01-30T08:31:37;98935.97;;;8.74;52.05
38880;BME280;25887;30.194;-97.880;2023-01-30T08:34:03;98942.72;;;8.69;52.26
38880;BME280;25887;30.194;-97.880;2023-01-30T08:39:16;98940.88;;;8.62;52.88
38880;BME280;25887;30.194;-97.880;2023-01-30T08:41:42;98935.72;;;8.59;52.02
38880;BME280;25887;30.194;-97.880;2023-01-30T08:44:11;98939.09;;;8.56;52.20
38880;BME280;25887;30.194;-97.880;2023-01-30T08:46:44;98943.31;;;8.56;52.82
38880;BME280;25887;30.194;-97.880;2023-01-30T08:49:10;98939.03;;;8.55;52.95
38880;BME280;25887;30.194;-97.880;2023-01-30T08:51:36;98946.78;;;8.56;52.52
38880;BME280;25887;30.194;-97.880;2023-01-30T08:54:22;98944.16;;;8.55;52.47
38880;BME280;25887;30.194;-97.880;2023-01-30T08:56:48;98930.47;;;8.51;52.33
38880;BME280;25887;30.194;-97.880;2023-01-30T08:59:14;98927.81;;;8.47;52.31
38880;BME280;25887;30.194;-97.880;2023-01-30T09:01:39;98941.44;;;8.44;52.20
38880;BME280;25887;30.194;-97.880;2023-01-30T09:04:05;98940.53;;;8.41;52.72
38880;BME280;25887;30.194;-97.880;2023-01-30T09:06:31;98948.97;;;8.35;52.87
38880;BME280;25887;30.194;-97.880;2023-01-30T09:09:04;98945.38;;;8.28;52.32
38880;BME280;25887;30.194;-97.880;2023-01-30T09:11:50;98935.84;;;8.20;52.57
38880;BME280;25887;30.194;-97.880;2023-01-30T09:14:16;98940.91;;;8.17;52.33
38880;BME280;25887;30.194;-97.880;2023-01-30T09:16:53;98946.78;;;8.11;52.79
38880;BME280;25887;30.194;-97.880;2023-01-30T09:19:22;98937.31;;;8.07;52.61
38880;BME280;25887;30.194;-97.880;2023-01-30T09:22:08;98944.84;;;8.01;53.12
38880;BME280;25887;30.194;-97.880;2023-01-30T09:24:34;98957.56;;;7.95;52.55
38880;BME280;25887;30.194;-97.880;2023-01-30T09:27:00;98959.19;;;7.91;52.94
38880;BME280;25887;30.194;-97.880;2023-01-30T09:29:26;98956.56;;;7.88;52.68
38880;BME280;25887;30.194;-97.880;2023-01-30T09:31:52;98954.78;;;7.86;52.17
38880;BME280;25887;30.194;-97.880;2023-01-30T09:34:21;98962.41;;;7.81;52.64
38880;BME280;25887;30.194;-97.880;2023-01-30T09:36:52;98963.97;;;7.74;52.21
38880;BME280;25887;30.194;-97.880;2023-01-30T09:39:18;98966.38;;;7.68;52.51
38880;BME280;25887;30.194;-97.880;2023-01-30T09:47:14;98946.41;;;7.50;52.42
38880;BME280;25887;30.194;-97.880;2023-01-30T09:49:51;98951.38;;;7.44;52.98
38880;BME280;25887;30.194;-97.880;2023-01-30T09:52:26;98936.78;;;7.39;52.74
38880;BME280;25887;30.194;-97.880;2023-01-30T09:54:59;98963.13;;;7.36;52.74
38880;BME280;25887;30.194;-97.880;2023-01-30T09:57:27;98984.41;;;7.34;52.54
38880;BME280;25887;30.194;-97.880;2023-01-30T10:02:28;98998.03;;;7.34;52.56
38880;BME280;25887;30.194;-97.880;2023-01-30T10:05:18;99007.41;;;7.34;52.87
38880;BME280;25887;30.194;-97.880;2023-01-30T10:16:17;99001.16;;;7.22;52.17
38880;BME280;25887;30.194;-97.880;2023-01-30T10:18:48;99026.66;;;7.19;52.64
38880;BME280;25887;30.194;-97.880;2023-01-30T10:21:35;99025.63;;;7.13;52.80
38880;BME280;25887;30.194;-97.880;2023-01-30T10:26:49;99006.69;;;7.03;53.18
38880;BME280;25887;30.194;-97.880;2023-01-30T10:29:23;99000.69;;;7.01;53.19
38880;BME280;25887;30.194;-97.880;2023-01-30T10:32:13;98991.19;;;6.97;52.96
38880;BME280;25887;30.194;-97.880;2023-01-30T10:34:41;98992.81;;;6.93;53.17
38880;BME280;25887;30.194;-97.880;2023-01-30T10:37:09;99001.22;;;6.89;53.18
38880;BME280;25887;30.194;-97.880;2023-01-30T10:44:32;99013.72;;;6.77;53.13
38880;BME280;25887;30.194;-97.880;2023-01-30T10:52:11;99004.03;;;6.65;53.31
38880;BME280;25887;30.194;-97.880;2023-01-30T10:54:46;99012.53;;;6.64;53.47
38880;BME280;25887;30.194;-97.880;2023-01-30T11:00:07;99011.63;;;6.62;53.53
38880;BME280;25887;30.194;-97.880;2023-01-30T11:02:46;99009.00;;;6.61;53.24
38880;BME280;25887;30.194;-97.880;2023-01-30T11:05:19;99007.22;;;6.57;53.51
38880;BME280;25887;30.194;-97.880;2023-01-30T11:07:58;99010.59;;;6.56;53.52
38880;BME280;25887;30.194;-97.880;2023-01-30T11:10:25;99009.72;;;6.54;53.44
38880;BME280;25887;30.194;-97.880;2023-01-30T11:12:52;99018.06;;;6.48;53.83
38880;BME280;25887;30.194;-97.880;2023-01-30T11:15:20;99026.44;;;6.44;53.64
38880;BME280;25887;30.194;-97.880;2023-01-30T11:17:49;99033.19;;;6.42;53.76
38880;BME280;25887;30.194;-97.880;2023-01-30T11:20:16;99043.34;;;6.39;53.94
38880;BME280;25887;30.194;-97.880;2023-01-30T11:25:16;99058.59;;;6.37;53.84
38880;BME280;25887;30.194;-97.880;2023-01-30T11:30:28;99045.06;;;6.40;54.05
38880;BME280;25887;30.194;-97.880;2023-01-30T11:33:03;99046.63;;;6.35;53.77
38880;BME280;25887;30.194;-97.880;2023-01-30T11:35:29;99036.34;;;6.32;54.14
38880;BME280;25887;30.194;-97.880;2023-01-30T11:38:11;99030.31;;;6.30;53.95
38880;BME280;25887;30.194;-97.880;2023-01-30T11:40:37;99035.19;;;6.22;54.02
38880;BME280;25887;30.194;-97.880;2023-01-30T11:43:07;99042.78;;;6.19;54.06
38880;BME280;25887;30.194;-97.880;2023-01-30T11:45:36;99047.84;;;6.18;54.33
38880;BME280;25887;30.194;-97.880;2023-01-30T11:48:04;99052.84;;;6.14;54.13
38880;BME280;25887;30.194;-97.880;2023-01-30T11:50:41;99054.50;;;6.12;54.49
38880;BME280;25887;30.194;-97.880;2023-01-30T11:53:16;99062.06;;;6.09;54.50
38880;BME280;25887;30.194;-97.880;2023-01-30T11:55:45;99050.13;;;6.08;54.16
38880;BME280;25887;30.194;-97.880;2023-01-30T11:58:11;99060.09;;;5.99;54.44
38880;BME280;25887;30.194;-97.880;2023-01-30T12:00:46;99061.66;;;5.96;54.51
38880;BME280;25887;30.194;-97.880;2023-01-30T12:03:16;99065.91;;;5.95;54.64
38880;BME280;25887;30.194;-97.880;2023-01-30T12:06:05;99066.69;;;5.93;54.35
38880;BME280;25887;30.194;-97.880;2023-01-30T12:08:32;99069.06;;;5.88;54.74
38880;BME280;25887;30.194;-97.880;2023-01-30T12:11:00;99067.31;;;5.87;54.46
38880;BME280;25887;30.194;-97.880;2023-01-30T12:13:28;99085.03;;;5.82;54.39
38880;BME280;25887;30.194;-97.880;2023-01-30T12:16:00;99094.38;;;5.82;54.49
38880;BME280;25887;30.194;-97.880;2023-01-30T12:18:45;99102.00;;;5.82;54.46
38880;BME280;25887;30.194;-97.880;2023-01-30T12:26:44;99104.09;;;5.67;54.64
38880;BME280;25887;30.194;-97.880;2023-01-30T12:29:20;99103.16;;;5.63;54.13
38880;BME280;25887;30.194;-97.880;2023-01-30T12:34:32;99121.56;;;5.54;54.75
38880;BME280;25887;30.194;-97.880;2023-01-30T12:50:05;99123.41;;;5.33;55.29
38880;BME280;25887;30.194;-97.880;2023-01-30T12:55:44;99153.78;;;5.27;54.73
38880;BME280;25887;30.194;-97.880;2023-01-30T12:58:16;99152.00;;;5.24;55.24
38880;BME280;25887;30.194;-97.880;2023-01-30T13:00:48;99138.28;;;5.21;54.56
38880;BME280;25887;30.194;-97.880;2023-01-30T13:06:10;99147.56;;;5.19;55.47
38880;BME280;25887;30.194;-97.880;2023-01-30T13:19:42;99169.59;;;5.17;54.84
38880;BME280;25887;30.194;-97.880;2023-01-30T13:22:29;99170.28;;;5.13;55.22
38880;BME280;25887;30.194;-97.880;2023-01-30T13:24:59;99170.19;;;5.10;54.83
38880;BME280;25887;30.194;-97.880;2023-01-30T13:27:27;99168.31;;;5.06;55.12
38880;BME280;25887;30.194;-97.880;2023-01-30T13:29:53;99191.94;;;5.00;55.42
38880;BME280;25887;30.194;-97.880;2023-01-30T13:32:33;99196.84;;;4.95;55.29
38880;BME280;25887;30.194;-97.880;2023-01-30T13:35:25;99197.56;;;4.91;54.91
38880;BME280;25887;30.194;-97.880;2023-01-30T13:37:53;99217.06;;;4.91;55.64
38880;BME280;25887;30.194;-97.880;2023-01-30T13:40:53;99231.41;;;4.89;55.30
38880;BME280;25887;30.194;-97.880;2023-01-30T13:43:17;99215.16;;;4.85;54.87
38880;BME280;25887;30.194;-97.880;2023-01-30T13:45:50;99218.53;;;4.84;54.83
38880;BME280;25887;30.194;-97.880;2023-01-30T14:07:20;99235.88;;;4.72;55.38
38880;BME280;25887;30.194;-97.880;2023-01-30T14:10:03;99255.44;;;4.73;55.21
38880;BME280;25887;30.194;-97.880;2023-01-30T14:12:34;99257.91;;;4.71;55.18
38880;BME280;25887;30.194;-97.880;2023-01-30T14:18:05;99267.25;;;4.71;55.65
38880;BME280;25887;30.194;-97.880;2023-01-30T14:20:49;99264.59;;;4.68;55.84
38880;BME280;25887;30.194;-97.880;2023-01-30T14:25:46;99284.72;;;4.62;55.50
38880;BME280;25887;30.194;-97.880;2023-01-30T14:38:30;99294.41;;;4.50;55.38
38880;BME280;25887;30.194;-97.880;2023-01-30T14:43:37;99309.69;;;4.50;55.50
38880;BME280;25887;30.194;-97.880;2023-01-30T14:59:16;99364.81;;;4.28;55.99
38880;BME280;25887;30.194;-97.880;2023-01-30T15:07:30;99390.03;;;4.24;55.71
38880;BME280;25887;30.194;-97.880;2023-01-30T15:26:23;99367.03;;;4.21;56.08
38880;BME280;25887;30.194;-97.880;2023-01-30T15:41:25;99383.78;;;4.15;56.42
38880;BME280;25887;30.194;-97.880;2023-01-30T15:50:30;99377.78;;;4.13;56.82
38880;BME280;25887;30.194;-97.880;2023-01-30T15:59:28;99406.34;;;4.08;57.06
38880;BME280;25887;30.194;-97.880;2023-01-30T16:37:26;99462.44;;;3.91;56.37
38880;BME280;25887;30.194;-97.880;2023-01-30T16:42:33;99440.94;;;3.85;56.29
38880;BME280;25887;30.194;-97.880;2023-01-30T16:47:45;99437.47;;;3.83;56.99
38880;BME280;25887;30.194;-97.880;2023-01-30T16:50:19;99421.28;;;3.81;57.01
38880;BME280;25887;30.194;-97.880;2023-01-30T16:52:46;99414.53;;;3.81;56.69
38880;BME280;25887;30.194;-97.880;2023-01-30T16:55:21;99414.53;;;3.81;56.60
38880;BME280;25887;30.194;-97.880;2023-01-30T17:02:52;99408.78;;;3.85;57.23
38880;BME280;25887;30.194;-97.880;2023-01-30T17:11:09;99405.44;;;3.86;56.82
38880;BME280;25887;30.194;-97.880;2023-01-30T17:13:37;99396.13;;;3.87;57.23
38880;BME280;25887;30.194;-97.880;2023-01-30T17:19:20;99401.16;;;3.85;57.20
38880;BME280;25887;30.194;-97.880;2023-01-30T17:21:49;99390.97;;;3.85;57.17
38880;BME280;25887;30.194;-97.880;2023-01-30T17:24:16;99391.09;;;3.88;57.37
38880;BME280;25887;30.194;-97.880;2023-01-30T17:26:49;99392.88;;;3.89;57.23
38880;BME280;25887;30.194;-97.880;2023-01-30T17:29:16;99392.94;;;3.91;56.64
38880;BME280;25887;30.194;-97.880;2023-01-30T17:31:44;99388.75;;;3.93;56.82
38880;BME280;25887;30.194;-97.880;2023-01-30T17:34:11;99384.66;;;3.97;56.66
38880;BME280;25887;30.194;-97.880;2023-01-30T17:36:37;99368.63;;;3.98;56.65
38880;BME280;25887;30.194;-97.880;2023-01-30T17:39:04;99353.44;;;3.99;56.98
38880;BME280;25887;30.194;-97.880;2023-01-30T17:41:34;99347.53;;;4.00;57.42
38880;BME280;25887;30.194;-97.880;2023-01-30T17:44:15;99346.75;;;4.01;56.83
38880;BME280;25887;30.194;-97.880;2023-01-30T17:47:01;99344.13;;;4.00;57.36
38880;BME280;25887;30.194;-97.880;2023-01-30T17:49:26;99336.50;;;4.00;56.82
38880;BME280;25887;30.194;-97.880;2023-01-30T17:51:52;99336.38;;;3.97;57.18
38880;BME280;25887;30.194;-97.880;2023-01-30T17:54:19;99331.22;;;3.95;56.76
38880;BME280;25887;30.194;-97.880;2023-01-30T17:57:02;99316.84;;;3.96;57.23
38880;BME280;25887;30.194;-97.880;2023-01-30T17:59:28;99310.16;;;3.98;57.48
38880;BME280;25887;30.194;-97.880;2023-01-30T18:02:14;99316.03;;;3.97;57.11
38880;BME280;25887;30.194;-97.880;2023-01-30T18:05:00;99328.63;;;3.94;56.96
38880;BME280;25887;30.194;-97.880;2023-01-30T18:07:26;99330.09;;;3.88;56.94
38880;BME280;25887;30.194;-97.880;2023-01-30T18:10:14;99322.28;;;3.84;56.73
38880;BME280;25887;30.194;-97.880;2023-01-30T18:12:40;99317.16;;;3.82;56.86
38880;BME280;25887;30.194;-97.880;2023-01-30T18:15:07;99328.91;;;3.80;57.35